WetterOnline ( https://www.wetteronline.de )

Wetter aktuell Nürburg

Aktuelles Wetter: Nürburg-Barweiler (488m)

6-stündlich | Neueste Meldungen
Ortszeit Temperatur Wetter
So, 25.02. 1:00 2.0° C wolkig
Sa, 24.02. 19:00 1.7° C wolkig
Sa, 24.02. 13:00 4.2° C wolkig
Sa, 24.02. 7:00 2.3° C leichter Regen
Sa, 24.02. 1:00 2.3° C Sprühregen
Fr, 23.02. 19:00 3.1° C wolkig
Fr, 23.02. 13:00 4.4° C bewölkt
Fr, 23.02. 7:00 1.9° C bewölkt
Ortszeit Temperatur Wetter
So, 25.02. 6:30 2.3° C Sprühregen
So, 25.02. 6:20 2.3° C Sprühregen
So, 25.02. 6:10 2.4° C bedeckt
So, 25.02. 6:00 2.3° C bedeckt
So, 25.02. 5:50 2.3° C bedeckt
So, 25.02. 5:40 2.4° C bedeckt
So, 25.02. 5:30 2.3° C bedeckt
So, 25.02. 5:00 2.4° C bedeckt
So, 25.02. 4:30 2.4° C bedeckt
So, 25.02. 4:00 2.3° C bedeckt
So, 25.02. 3:30 1.8° C bedeckt
Ortszeit Relative Feuchte Sichtweite
So, 25.02. 1:00 85% 50 km
Sa, 24.02. 19:00 88% 50 km
Sa, 24.02. 13:00 70% 65 km
Sa, 24.02. 7:00 91% 45 km
Sa, 24.02. 1:00 94% 45 km
Fr, 23.02. 19:00 85% 50 km
Fr, 23.02. 13:00 76% 45 km
Fr, 23.02. 7:00 83% 40 km
Ortszeit Relative Feuchte Sichtweite
So, 25.02. 6:30 90% 14 km
So, 25.02. 6:20 90% -
So, 25.02. 6:10 90% -
So, 25.02. 6:00 88% 60 km
So, 25.02. 5:50 88% -
So, 25.02. 5:40 89% -
So, 25.02. 5:30 89% 65 km
So, 25.02. 5:00 89% >70 km
So, 25.02. 4:30 90% 50 km
So, 25.02. 4:00 90% >70 km
So, 25.02. 3:30 92% 65 km
Ortszeit Niederschlagsmenge Niederschlagsart
So, 25.02. 1:00 0.0 l/m2 in 6 Std. -
Sa, 24.02. 19:00 1 l/m2 in 12 Std. Schnee, Regen
Sa, 24.02. 13:00 0.6 l/m2 in 6 Std. Schnee, Regen
Sa, 24.02. 7:00 2 l/m2 in 12 Std. Regen
Sa, 24.02. 1:00 2 l/m2 in 6 Std. Regen
Fr, 23.02. 19:00 0.3 l/m2 in 12 Std. Regen
Fr, 23.02. 13:00 0.3 l/m2 in 6 Std. Regen
Fr, 23.02. 7:00 3 l/m2 in 12 Std. Schnee, Regen
Ortszeit Niederschlagsmenge Niederschlagsart
So, 25.02. 6:30 <0.05 l/m2 in 30 Min -
So, 25.02. 6:20 keine Meldung -
So, 25.02. 6:10 keine Meldung -
So, 25.02. 6:00 0.0 l/m2 in 1 Std. -
So, 25.02. 5:50 keine Meldung -
So, 25.02. 5:40 keine Meldung -
So, 25.02. 5:30 0.0 l/m2 in 30 Min -
So, 25.02. 5:00 <0.05 l/m2 in 1 Std. Regen
So, 25.02. 4:30 <0.05 l/m2 in 30 Min Schneeregen
So, 25.02. 4:00 <0.05 l/m2 in 1 Std. Regen
So, 25.02. 3:30 0.0 l/m2 in 30 Min -
Ortszeit Stärke Spitze Richtung
km/h Bft. km/h Grad Sektor
So, 25.02. 1:00 14 3 32 170° S
Sa, 24.02. 19:00 9 2 44 190° S
Sa, 24.02. 13:00 18 3 47 210° SW
Sa, 24.02. 7:00 11 2 29 190° S
Sa, 24.02. 1:00 14 3 32 170° S
Fr, 23.02. 19:00 6 1 44 150° SO
Fr, 23.02. 13:00 22 4 50 210° SW
Fr, 23.02. 7:00 18 3 65 220° SW
Ortszeit Stärke Spitze Richtung
km/h Bft. km/h Grad Sektor
So, 25.02. 6:30 11 2 29 210° SW
So, 25.02. 6:20 11 2 - 210° SW
So, 25.02. 6:10 13 3 - 210° SW
So, 25.02. 6:00 13 3 31 200° S
So, 25.02. 5:50 13 3 - 200° S
So, 25.02. 5:40 14 3 - 210° SW
So, 25.02. 5:30 14 3 29 200° S
So, 25.02. 5:00 11 2 32 210° SW
So, 25.02. 4:30 14 3 32 200° S
So, 25.02. 4:00 17 3 35 210° SW
So, 25.02. 3:30 17 3 31 200° S
Ortszeit Untergrenze Bedeckung Gattung
total tief tief mittel hoch
So, 25.02. 1:00 2700 m 7/8 1/8 - - -
Sa, 24.02. 19:00 1050 m 7/8 3/8 - - -
Sa, 24.02. 13:00 690 m 6/8 6/8 - - -
Sa, 24.02. 7:00 270 m 7/8 7/8 - - -
Sa, 24.02. 1:00 180 m 7/8 7/8 - - -
Fr, 23.02. 19:00 1380 m 6/8 2/8 - - -
Fr, 23.02. 13:00 570 m 7/8 7/8 - - -
Fr, 23.02. 7:00 450 m 7/8 7/8 - - -
Ortszeit Bedeckungsgrad in Achtel und Wolkenuntergrenze
So, 25.02. 6:30 6(240m) 7(360m)
So, 25.02. 6:20 6(240m) 7(360m)
So, 25.02. 6:10 8
So, 25.02. 6:00 6(360m) 7(510m) 8(1320m)
So, 25.02. 5:50 6(360m) 7(510m) 8(1320m)
So, 25.02. 5:40 8
So, 25.02. 5:30 6(330m) 8(510m)
So, 25.02. 5:00 5(300m) 8(480m) 8(6000m)
So, 25.02. 4:30 6(300m) 7(450m) 8(630m)
So, 25.02. 4:00 7(270m) 7(390m) 8(510m)
So, 25.02. 3:30 7(240m) 8(390m)
Ortszeit Luftdruck NN (hPa) Tendenz (hPa in 3 Std.)
So, 25.02. 1:00 1004 - 1,3
Sa, 24.02. 19:00 1005 + 1,4
Sa, 24.02. 13:00 1002 + 1,5
Sa, 24.02. 7:00 998 + 0,9
Sa, 24.02. 1:00 997 + 0,2
Fr, 23.02. 19:00 996 + 0,6
Fr, 23.02. 13:00 995 + 0,1
Fr, 23.02. 7:00 995 - 0,3
Ortszeit Luftdruck NN (hPa) Tendenz (hPa in 3 Std.)
So, 25.02. 6:30 1003 + 0,1
So, 25.02. 6:20 1003 keine Meldung
So, 25.02. 6:10 1003 keine Meldung
So, 25.02. 6:00 1003 0,0
So, 25.02. 5:50 1003 keine Meldung
So, 25.02. 5:40 1003 keine Meldung
So, 25.02. 5:30 1003 - 0,3
So, 25.02. 5:00 1003 - 0,5
So, 25.02. 4:30 1003 - 0,5
So, 25.02. 4:00 1003 - 0,4
So, 25.02. 3:30 1003 - 0,5
Ortszeit Schneehöhe (cm)
So, 25.02. 1:00 0
Sa, 24.02. 19:00 0
Sa, 24.02. 13:00 0
Sa, 24.02. 7:00 0
Sa, 24.02. 1:00 0
Fr, 23.02. 19:00 0
Fr, 23.02. 13:00 0
Fr, 23.02. 7:00 0
Ortszeit Schneehöhe (cm)
So, 25.02. 6:30 0
So, 25.02. 6:20 0
So, 25.02. 6:10 -
So, 25.02. 6:00 0
So, 25.02. 5:50 0
So, 25.02. 5:40 -
So, 25.02. 5:30 0
So, 25.02. 5:00 0
So, 25.02. 4:30 0
So, 25.02. 4:00 0
So, 25.02. 3:30 0
Link zu dieser Seite / Seite empfehlen

Das Wetter in ...